Terminal Aerodrome Forecast
Issued by NWS

Home | Current Version | Previous Version | Text Only | Print | Product List | Glossary On
Versions: 1 2 3 4 5 6 7 8 9 10 11 12 13 14 15 16 17 18 19 20 21 22 23 24 25 26 27 28 29 30 31 32
000
FTUS41 KCTP 182325
TAFBFD
TAF
KBFD 182325Z 1900/1924 21005KT P6SM SKC
     FM190600 16007KT P6SM SCT025 BKN050 WS018/18045KT
     FM190900 16007KT P6SM BKN025 OVC050 WS020/21043KT
     FM191400 18009G16KT 4SM -RA BR OVC015 WS020/22053KT
     FM191700 18008G15KT 2SM -RA BR OVC003 WS020/22051KT=

USA.gov is the U.S. government's official web portal to all federal, state and local government web resources and services.